sensor_id;sensor_type;location;lat;lon;timestamp;pressure;altitude;pressure_sealevel;temperature;humidity
11349;BME280;5729;43.570;27.826;2022-12-07T00:01:11;99277.88;;;8.28;100.00
11349;BME280;5729;43.570;27.826;2022-12-07T00:03:38;99285.47;;;8.26;100.00
11349;BME280;5729;43.570;27.826;2022-12-07T00:06:06;99282.38;;;8.24;100.00
11349;BME280;5729;43.570;27.826;2022-12-07T00:08:33;99284.28;;;8.23;100.00
11349;BME280;5729;43.570;27.826;2022-12-07T00:11:06;99289.97;;;8.22;100.00
11349;BME280;5729;43.570;27.826;2022-12-07T00:13:32;99295.03;;;8.23;100.00
11349;BME280;5729;43.570;27.826;2022-12-07T00:16:15;99293.53;;;8.26;100.00
11349;BME280;5729;43.570;27.826;2022-12-07T00:18:41;99288.97;;;8.26;100.00
11349;BME280;5729;43.570;27.826;2022-12-07T00:21:13;99277.66;;;8.21;100.00
11349;BME280;5729;43.570;27.826;2022-12-07T00:23:40;99294.66;;;8.25;100.00
11349;BME280;5729;43.570;27.826;2022-12-07T00:26:08;99281.94;;;8.22;100.00
11349;BME280;5729;43.570;27.826;2022-12-07T00:28:34;99283.03;;;8.21;100.00
11349;BME280;5729;43.570;27.826;2022-12-07T00:31:05;99278.13;;;8.23;100.00
11349;BME280;5729;43.570;27.826;2022-12-07T00:33:32;99273.88;;;8.22;100.00
11349;BME280;5729;43.570;27.826;2022-12-07T00:35:58;99275.78;;;8.21;100.00
11349;BME280;5729;43.570;27.826;2022-12-07T00:38:24;99262.22;;;8.18;100.00
11349;BME280;5729;43.570;27.826;2022-12-07T00:40:57;99272.31;;;8.21;100.00
11349;BME280;5729;43.570;27.826;2022-12-07T00:43:23;99268.16;;;8.23;100.00
11349;BME280;5729;43.570;27.826;2022-12-07T00:45:49;99259.88;;;8.16;100.00
11349;BME280;5729;43.570;27.826;2022-12-07T00:48:14;99267.59;;;8.18;100.00
11349;BME280;5729;43.570;27.826;2022-12-07T00:50:39;99270.16;;;8.14;100.00
11349;BME280;5729;43.570;27.826;2022-12-07T00:53:05;99271.63;;;8.12;100.00
11349;BME280;5729;43.570;27.826;2022-12-07T00:55:34;99264.47;;;8.16;100.00
11349;BME280;5729;43.570;27.826;2022-12-07T00:57:59;99258.63;;;8.14;100.00
11349;BME280;5729;43.570;27.826;2022-12-07T01:00:25;99256.63;;;8.11;100.00
11349;BME280;5729;43.570;27.826;2022-12-07T01:02:50;99266.59;;;8.10;100.00
11349;BME280;5729;43.570;27.826;2022-12-07T01:05:16;99256.50;;;8.07;100.00
11349;BME280;5729;43.570;27.826;2022-12-07T01:07:41;99253.72;;;8.03;100.00
11349;BME280;5729;43.570;27.826;2022-12-07T01:10:07;99246.78;;;8.02;100.00
11349;BME280;5729;43.570;27.826;2022-12-07T01:12:32;99247.22;;;8.05;100.00
11349;BME280;5729;43.570;27.826;2022-12-07T01:14:58;99242.09;;;7.99;100.00
11349;BME280;5729;43.570;27.826;2022-12-07T01:17:23;99247.00;;;7.97;100.00
11349;BME280;5729;43.570;27.826;2022-12-07T01:19:49;99233.59;;;7.97;100.00
11349;BME280;5729;43.570;27.826;2022-12-07T01:22:14;99233.59;;;7.97;100.00
11349;BME280;5729;43.570;27.826;2022-12-07T01:24:40;99234.81;;;8.00;100.00
11349;BME280;5729;43.570;27.826;2022-12-07T01:27:05;99230.31;;;7.92;100.00
11349;BME280;5729;43.570;27.826;2022-12-07T01:29:31;99224.19;;;7.91;100.00
11349;BME280;5729;43.570;27.826;2022-12-07T01:31:56;99221.41;;;7.88;100.00
11349;BME280;5729;43.570;27.826;2022-12-07T01:34:21;99223.63;;;7.86;100.00
11349;BME280;5729;43.570;27.826;2022-12-07T01:36:47;99224.88;;;7.88;100.00
11349;BME280;5729;43.570;27.826;2022-12-07T01:39:12;99222.84;;;7.85;100.00
11349;BME280;5729;43.570;27.826;2022-12-07T01:41:39;99223.06;;;7.80;100.00
11349;BME280;5729;43.570;27.826;2022-12-07T01:46:55;99224.63;;;7.81;100.00
11349;BME280;5729;43.570;27.826;2022-12-07T01:49:31;99207.84;;;7.72;100.00
11349;BME280;5729;43.570;27.826;2022-12-07T01:52:10;99222.50;;;7.75;100.00
11349;BME280;5729;43.570;27.826;2022-12-07T01:54:38;99218.47;;;7.81;100.00
11349;BME280;5729;43.570;27.826;2022-12-07T01:57:04;99212.00;;;7.82;100.00
11349;BME280;5729;43.570;27.826;2022-12-07T01:59:32;99212.31;;;7.80;100.00
11349;BME280;5729;43.570;27.826;2022-12-07T02:01:57;99209.31;;;7.82;100.00
11349;BME280;5729;43.570;27.826;2022-12-07T02:04:23;99204.72;;;7.82;100.00
11349;BME280;5729;43.570;27.826;2022-12-07T02:06:50;99217.03;;;7.83;100.00
11349;BME280;5729;43.570;27.826;2022-12-07T02:09:16;99208.19;;;7.83;100.00
11349;BME280;5729;43.570;27.826;2022-12-07T02:11:42;99213.56;;;7.83;100.00
11349;BME280;5729;43.570;27.826;2022-12-07T02:14:08;99205.84;;;7.81;100.00
11349;BME280;5729;43.570;27.826;2022-12-07T02:26:51;99226.50;;;7.81;100.00
11349;BME280;5729;43.570;27.826;2022-12-07T02:29:26;99219.16;;;7.78;100.00
11349;BME280;5729;43.570;27.826;2022-12-07T02:32:06;99218.56;;;7.72;100.00
11349;BME280;5729;43.570;27.826;2022-12-07T02:35:05;99212.31;;;7.68;100.00
11349;BME280;5729;43.570;27.826;2022-12-07T02:40:23;99210.75;;;7.67;100.00
11349;BME280;5729;43.570;27.826;2022-12-07T02:42:55;99175.41;;;7.53;100.00
11349;BME280;5729;43.570;27.826;2022-12-07T02:45:25;99202.72;;;7.67;100.00
11349;BME280;5729;43.570;27.826;2022-12-07T02:47:56;99198.56;;;7.70;100.00
11349;BME280;5729;43.570;27.826;2022-12-07T02:50:24;99196.00;;;7.73;100.00
11349;BME280;5729;43.570;27.826;2022-12-07T02:52:49;99198.81;;;7.77;100.00
11349;BME280;5729;43.570;27.826;2022-12-07T02:55:17;99194.66;;;7.79;100.00
11349;BME280;5729;43.570;27.826;2022-12-07T02:58:13;99164.47;;;7.70;100.00
11349;BME280;5729;43.570;27.826;2022-12-07T03:01:08;99185.41;;;7.89;100.00
11349;BME280;5729;43.570;27.826;2022-12-07T03:03:39;99180.13;;;7.92;100.00
11349;BME280;5729;43.570;27.826;2022-12-07T03:06:27;99187.31;;;8.00;100.00
11349;BME280;5729;43.570;27.826;2022-12-07T03:11:40;99170.41;;;7.88;100.00
11349;BME280;5729;43.570;27.826;2022-12-07T03:14:25;99189.53;;;8.11;100.00
11349;BME280;5729;43.570;27.826;2022-12-07T03:17:08;99165.38;;;7.98;100.00
11349;BME280;5729;43.570;27.826;2022-12-07T03:19:36;99198.00;;;8.13;100.00
11349;BME280;5729;43.570;27.826;2022-12-07T03:22:07;99189.19;;;8.12;100.00
11349;BME280;5729;43.570;27.826;2022-12-07T03:24:46;99185.72;;;8.12;100.00
11349;BME280;5729;43.570;27.826;2022-12-07T03:27:20;99177.31;;;8.13;100.00
11349;BME280;5729;43.570;27.826;2022-12-07T03:29:50;99180.25;;;8.08;100.00
11349;BME280;5729;43.570;27.826;2022-12-07T03:32:25;99186.59;;;8.16;100.00
11349;BME280;5729;43.570;27.826;2022-12-07T03:35:14;99184.16;;;8.11;100.00
11349;BME280;5729;43.570;27.826;2022-12-07T03:40:28;99183.25;;;8.07;100.00
11349;BME280;5729;43.570;27.826;2022-12-07T03:42:55;99181.81;;;7.97;100.00
11349;BME280;5729;43.570;27.826;2022-12-07T03:45:37;99184.25;;;8.02;100.00
11349;BME280;5729;43.570;27.826;2022-12-07T03:50:52;99187.19;;;7.97;100.00
11349;BME280;5729;43.570;27.826;2022-12-07T03:53:29;99185.16;;;7.94;100.00
11349;BME280;5729;43.570;27.826;2022-12-07T03:55:58;99188.97;;;7.93;100.00
11349;BME280;5729;43.570;27.826;2022-12-07T03:58:25;99187.19;;;7.97;100.00
11349;BME280;5729;43.570;27.826;2022-12-07T04:00:51;99188.63;;;7.94;100.00
11349;BME280;5729;43.570;27.826;2022-12-07T04:03:17;99184.81;;;7.95;100.00
11349;BME280;5729;43.570;27.826;2022-12-07T04:05:43;99173.97;;;7.92;100.00
11349;BME280;5729;43.570;27.826;2022-12-07T04:08:08;99180.44;;;8.03;100.00
11349;BME280;5729;43.570;27.826;2022-12-07T04:10:34;99191.75;;;8.09;100.00
11349;BME280;5729;43.570;27.826;2022-12-07T04:13:00;99160.47;;;8.00;100.00
11349;BME280;5729;43.570;27.826;2022-12-07T04:15:26;99161.66;;;8.15;100.00
11349;BME280;5729;43.570;27.826;2022-12-07T04:17:53;99165.13;;;8.16;100.00
11349;BME280;5729;43.570;27.826;2022-12-07T04:20:20;99178.09;;;8.26;100.00
11349;BME280;5729;43.570;27.826;2022-12-07T04:22:45;99183.38;;;8.34;100.00
11349;BME280;5729;43.570;27.826;2022-12-07T04:25:10;99178.09;;;8.38;100.00
11349;BME280;5729;43.570;27.826;2022-12-07T04:27:36;99164.91;;;8.33;100.00
11349;BME280;5729;43.570;27.826;2022-12-07T04:30:02;99170.59;;;8.44;100.00
11349;BME280;5729;43.570;27.826;2022-12-07T04:32:27;99175.72;;;8.49;100.00
11349;BME280;5729;43.570;27.826;2022-12-07T04:34:53;99183.34;;;8.47;100.00
11349;BME280;5729;43.570;27.826;2022-12-07T04:37:18;99174.28;;;8.39;100.00
11349;BME280;5729;43.570;27.826;2022-12-07T04:39:44;99187.25;;;8.49;100.00
11349;BME280;5729;43.570;27.826;2022-12-07T04:42:12;99185.81;;;8.40;100.00
11349;BME280;5729;43.570;27.826;2022-12-07T04:44:38;99181.78;;;8.46;100.00
11349;BME280;5729;43.570;27.826;2022-12-07T04:47:04;99185.25;;;8.46;100.00
11349;BME280;5729;43.570;27.826;2022-12-07T04:49:29;99185.34;;;8.50;100.00
11349;BME280;5729;43.570;27.826;2022-12-07T04:51:55;99192.94;;;8.48;100.00
11349;BME280;5729;43.570;27.826;2022-12-07T04:54:20;99175.19;;;8.31;100.00
11349;BME280;5729;43.570;27.826;2022-12-07T04:56:46;99182.94;;;8.32;100.00
11349;BME280;5729;43.570;27.826;2022-12-07T04:59:13;99194.22;;;8.38;100.00
11349;BME280;5729;43.570;27.826;2022-12-07T05:01:39;99183.13;;;8.27;100.00
11349;BME280;5729;43.570;27.826;2022-12-07T05:04:06;99192.75;;;8.16;100.00
11349;BME280;5729;43.570;27.826;2022-12-07T05:06:32;99191.53;;;8.14;100.00
11349;BME280;5729;43.570;27.826;2022-12-07T05:08:58;99196.00;;;8.10;100.00
11349;BME280;5729;43.570;27.826;2022-12-07T05:11:23;99193.09;;;8.02;100.00
11349;BME280;5729;43.570;27.826;2022-12-07T05:14:16;99192.53;;;7.97;100.00
11349;BME280;5729;43.570;27.826;2022-12-07T05:16:43;99181.69;;;7.93;100.00
11349;BME280;5729;43.570;27.826;2022-12-07T05:19:09;99188.97;;;7.93;100.00
11349;BME280;5729;43.570;27.826;2022-12-07T05:21:36;99189.28;;;7.91;100.00
11349;BME280;5729;43.570;27.826;2022-12-07T05:24:02;99181.69;;;7.81;100.00
11349;BME280;5729;43.570;27.826;2022-12-07T05:26:28;99180.56;;;7.82;100.00
11349;BME280;5729;43.570;27.826;2022-12-07T05:28:54;99169.50;;;7.84;100.00
11349;BME280;5729;43.570;27.826;2022-12-07T05:31:21;99169.38;;;7.80;100.00
11349;BME280;5729;43.570;27.826;2022-12-07T05:33:47;99153.72;;;7.70;100.00
11349;BME280;5729;43.570;27.826;2022-12-07T05:36:12;99172.44;;;7.79;100.00
11349;BME280;5729;43.570;27.826;2022-12-07T05:38:38;99181.16;;;7.88;100.00
11349;BME280;5729;43.570;27.826;2022-12-07T05:41:05;99181.69;;;7.93;100.00
11349;BME280;5729;43.570;27.826;2022-12-07T05:43:31;99180.38;;;7.87;100.00
11349;BME280;5729;43.570;27.826;2022-12-07T05:45:57;99186.50;;;7.88;100.00
11349;BME280;5729;43.570;27.826;2022-12-07T05:48:23;99184.03;;;7.83;100.00
11349;BME280;5729;43.570;27.826;2022-12-07T05:50:49;99185.81;;;7.91;100.00
11349;BME280;5729;43.570;27.826;2022-12-07T05:53:15;99183.06;;;7.99;100.00
11349;BME280;5729;43.570;27.826;2022-12-07T05:55:40;99176.19;;;8.02;100.00
11349;BME280;5729;43.570;27.826;2022-12-07T05:58:06;99187.38;;;8.16;100.00
11349;BME280;5729;43.570;27.826;2022-12-07T06:00:50;99198.44;;;8.27;100.00
11349;BME280;5729;43.570;27.826;2022-12-07T06:03:15;99194.91;;;8.35;100.00
11349;BME280;5729;43.570;27.826;2022-12-07T06:05:41;99195.22;;;8.46;100.00
11349;BME280;5729;43.570;27.826;2022-12-07T06:08:07;99207.72;;;8.54;100.00
11349;BME280;5729;43.570;27.826;2022-12-07T06:10:33;99198.41;;;8.63;100.00
11349;BME280;5729;43.570;27.826;2022-12-07T06:12:58;99204.75;;;8.71;100.00
11349;BME280;5729;43.570;27.826;2022-12-07T06:15:23;99206.66;;;8.70;100.00
11349;BME280;5729;43.570;27.826;2022-12-07T06:17:49;99208.47;;;8.79;100.00
11349;BME280;5729;43.570;27.826;2022-12-07T06:20:14;99204.41;;;8.85;100.00
11349;BME280;5729;43.570;27.826;2022-12-07T06:22:40;99202.34;;;8.94;100.00
11349;BME280;5729;43.570;27.826;2022-12-07T06:25:06;99199.75;;;8.97;100.00
11349;BME280;5729;43.570;27.826;2022-12-07T06:27:32;99201.44;;;9.02;100.00
11349;BME280;5729;43.570;27.826;2022-12-07T06:29:58;99205.25;;;9.01;100.00
11349;BME280;5729;43.570;27.826;2022-12-07T06:32:24;99198.53;;;8.95;100.00
11349;BME280;5729;43.570;27.826;2022-12-07T06:34:49;99192.72;;;8.93;100.00
11349;BME280;5729;43.570;27.826;2022-12-07T06:37:14;99185.72;;;9.04;100.00
11349;BME280;5729;43.570;27.826;2022-12-07T06:39:40;99196.06;;;9.18;100.00
11349;BME280;5729;43.570;27.826;2022-12-07T06:42:05;99189.84;;;9.29;100.00
11349;BME280;5729;43.570;27.826;2022-12-07T06:44:31;99190.56;;;9.42;100.00
11349;BME280;5729;43.570;27.826;2022-12-07T06:46:56;99175.22;;;9.42;100.00
11349;BME280;5729;43.570;27.826;2022-12-07T06:49:22;99197.53;;;9.59;100.00
11349;BME280;5729;43.570;27.826;2022-12-07T06:51:47;99202.31;;;9.65;100.00
11349;BME280;5729;43.570;27.826;2022-12-07T06:54:14;99189.75;;;9.69;100.00
11349;BME280;5729;43.570;27.826;2022-12-07T06:56:40;99175.66;;;9.60;100.00
11349;BME280;5729;43.570;27.826;2022-12-07T06:59:06;99187.47;;;9.71;100.00
11349;BME280;5729;43.570;27.826;2022-12-07T07:01:34;99197.88;;;9.73;100.00
11349;BME280;5729;43.570;27.826;2022-12-07T07:04:00;99191.81;;;9.76;100.00
11349;BME280;5729;43.570;27.826;2022-12-07T07:06:26;99196.06;;;9.77;100.00
11349;BME280;5729;43.570;27.826;2022-12-07T07:08:52;99201.00;;;9.75;100.00
11349;BME280;5729;43.570;27.826;2022-12-07T07:11:17;99197.28;;;9.79;100.00
11349;BME280;5729;43.570;27.826;2022-12-07T07:13:44;99196.06;;;9.77;100.00
11349;BME280;5729;43.570;27.826;2022-12-07T07:16:10;99196.41;;;9.60;100.00
11349;BME280;5729;43.570;27.826;2022-12-07T07:18:35;99199.09;;;9.60;100.00
11349;BME280;5729;43.570;27.826;2022-12-07T07:21:01;99206.31;;;9.56;100.00
11349;BME280;5729;43.570;27.826;2022-12-07T07:23:26;99200.31;;;9.46;100.00
11349;BME280;5729;43.570;27.826;2022-12-07T07:25:52;99207.44;;;9.55;100.00
11349;BME280;5729;43.570;27.826;2022-12-07T07:28:18;99212.41;;;9.68;100.00
11349;BME280;5729;43.570;27.826;2022-12-07T07:30:43;99200.84;;;9.68;100.00
11349;BME280;5729;43.570;27.826;2022-12-07T07:33:09;99214.22;;;9.80;100.00
11349;BME280;5729;43.570;27.826;2022-12-07T07:35:35;99207.97;;;9.92;100.00
11349;BME280;5729;43.570;27.826;2022-12-07T07:38:01;99210.63;;;10.07;100.00
11349;BME280;5729;43.570;27.826;2022-12-07T07:40:27;99208.72;;;10.08;100.00
11349;BME280;5729;43.570;27.826;2022-12-07T07:42:56;99207.25;;;10.10;100.00
11349;BME280;5729;43.570;27.826;2022-12-07T07:45:23;99210.03;;;10.14;100.00
11349;BME280;5729;43.570;27.826;2022-12-07T07:47:50;99202.22;;;10.25;100.00
11349;BME280;5729;43.570;27.826;2022-12-07T07:50:16;99178.41;;;10.27;100.00
11349;BME280;5729;43.570;27.826;2022-12-07T07:52:41;99207.41;;;10.68;100.00
11349;BME280;5729;43.570;27.826;2022-12-07T07:55:08;99206.69;;;10.90;100.00
11349;BME280;5729;43.570;27.826;2022-12-07T07:57:38;99196.31;;;11.12;100.00
11349;BME280;5729;43.570;27.826;2022-12-07T08:00:04;99181.41;;;11.18;100.00
11349;BME280;5729;43.570;27.826;2022-12-07T08:02:31;99190.44;;;11.48;100.00
11349;BME280;5729;43.570;27.826;2022-12-07T08:04:56;99198.44;;;11.87;100.00
11349;BME280;5729;43.570;27.826;2022-12-07T08:07:22;99200.56;;;12.23;100.00
11349;BME280;5729;43.570;27.826;2022-12-07T08:09:47;99199.78;;;12.53;100.00
11349;BME280;5729;43.570;27.826;2022-12-07T08:12:12;99196.06;;;12.61;100.00
11349;BME280;5729;43.570;27.826;2022-12-07T08:14:38;99208.53;;;12.43;100.00
11349;BME280;5729;43.570;27.826;2022-12-07T08:17:03;99202.59;;;12.30;100.00
11349;BME280;5729;43.570;27.826;2022-12-07T08:19:29;99206.88;;;12.08;100.00
11349;BME280;5729;43.570;27.826;2022-12-07T08:21:55;99202.56;;;12.04;100.00
11349;BME280;5729;43.570;27.826;2022-12-07T08:24:21;99204.00;;;11.97;100.00
11349;BME280;5729;43.570;27.826;2022-12-07T08:26:47;99211.53;;;11.85;100.00
11349;BME280;5729;43.570;27.826;2022-12-07T08:29:12;99216.97;;;11.65;100.00
11349;BME280;5729;43.570;27.826;2022-12-07T08:31:38;99199.78;;;11.54;100.00
11349;BME280;5729;43.570;27.826;2022-12-07T08:34:03;99197.88;;;11.55;100.00
11349;BME280;5729;43.570;27.826;2022-12-07T08:36:28;99194.66;;;11.69;100.00
11349;BME280;5729;43.570;27.826;2022-12-07T08:38:54;99205.81;;;11.67;100.00
11349;BME280;5729;43.570;27.826;2022-12-07T08:41:19;99201.47;;;11.62;100.00
11349;BME280;5729;43.570;27.826;2022-12-07T08:43:45;99201.25;;;11.48;100.00
11349;BME280;5729;43.570;27.826;2022-12-07T08:48:43;99191.50;;;11.44;100.00
11349;BME280;5729;43.570;27.826;2022-12-07T08:51:10;99195.16;;;11.32;100.00
11349;BME280;5729;43.570;27.826;2022-12-07T08:53:37;99184.59;;;11.23;100.00
11349;BME280;5729;43.570;27.826;2022-12-07T08:56:04;99187.47;;;11.11;100.00
11349;BME280;5729;43.570;27.826;2022-12-07T08:58:32;99172.41;;;11.10;100.00
11349;BME280;5729;43.570;27.826;2022-12-07T09:00:57;99186.78;;;11.18;100.00
11349;BME280;5729;43.570;27.826;2022-12-07T09:03:23;99179.31;;;11.31;100.00
11349;BME280;5729;43.570;27.826;2022-12-07T09:05:48;99183.66;;;11.35;100.00
11349;BME280;5729;43.570;27.826;2022-12-07T09:08:14;99183.84;;;11.69;100.00
11349;BME280;5729;43.570;27.826;2022-12-07T09:10:40;99184.16;;;11.86;100.00
11349;BME280;5729;43.570;27.826;2022-12-07T09:13:06;99184.28;;;12.20;100.00
11349;BME280;5729;43.570;27.826;2022-12-07T09:15:31;99174.16;;;12.40;100.00
11349;BME280;5729;43.570;27.826;2022-12-07T09:17:57;99157.66;;;12.48;100.00
11349;BME280;5729;43.570;27.826;2022-12-07T09:20:22;99177.41;;;12.82;100.00
11349;BME280;5729;43.570;27.826;2022-12-07T09:22:48;99169.72;;;12.88;100.00
11349;BME280;5729;43.570;27.826;2022-12-07T09:25:13;99164.28;;;13.18;100.00
11349;BME280;5729;43.570;27.826;2022-12-07T09:27:39;99144.63;;;13.24;100.00
11349;BME280;5729;43.570;27.826;2022-12-07T09:30:06;99144.53;;;13.58;100.00
11349;BME280;5729;43.570;27.826;2022-12-07T09:32:31;99146.31;;;13.84;100.00
11349;BME280;5729;43.570;27.826;2022-12-07T09:34:57;99143.06;;;14.18;100.00
11349;BME280;5729;43.570;27.826;2022-12-07T09:37:22;99125.31;;;14.35;100.00
11349;BME280;5729;43.570;27.826;2022-12-07T09:39:48;99130.88;;;14.60;100.00
11349;BME280;5729;43.570;27.826;2022-12-07T09:42:38;99143.03;;;15.02;100.00
11349;BME280;5729;43.570;27.826;2022-12-07T09:45:11;99138.06;;;15.39;100.00
11349;BME280;5729;43.570;27.826;2022-12-07T09:47:37;99140.41;;;15.48;100.00
11349;BME280;5729;43.570;27.826;2022-12-07T09:50:06;99138.84;;;15.33;100.00
11349;BME280;5729;43.570;27.826;2022-12-07T09:52:33;99134.16;;;15.12;100.00
11349;BME280;5729;43.570;27.826;2022-12-07T09:54:58;99138.09;;;15.60;100.00
11349;BME280;5729;43.570;27.826;2022-12-07T09:57:32;99123.34;;;15.97;100.00
11349;BME280;5729;43.570;27.826;2022-12-07T10:00:03;99119.50;;;15.66;100.00
11349;BME280;5729;43.570;27.826;2022-12-07T10:02:38;99096.94;;;15.26;100.00
11349;BME280;5729;43.570;27.826;2022-12-07T10:05:07;99113.28;;;15.62;100.00
11349;BME280;5729;43.570;27.826;2022-12-07T10:07:35;99114.41;;;15.82;100.00
11349;BME280;5729;43.570;27.826;2022-12-07T10:10:09;99114.50;;;16.84;100.00
11349;BME280;5729;43.570;27.826;2022-12-07T10:15:55;99108.81;;;17.26;100.00
11349;BME280;5729;43.570;27.826;2022-12-07T10:23:28;99110.44;;;16.29;100.00
11349;BME280;5729;43.570;27.826;2022-12-07T10:25:54;99102.28;;;14.77;100.00
11349;BME280;5729;43.570;27.826;2022-12-07T10:28:20;99079.84;;;14.04;100.00
11349;BME280;5729;43.570;27.826;2022-12-07T10:31:02;99099.53;;;13.94;100.00
11349;BME280;5729;43.570;27.826;2022-12-07T10:33:30;99092.91;;;13.84;100.00
11349;BME280;5729;43.570;27.826;2022-12-07T10:35:56;99086.91;;;13.54;100.00
11349;BME280;5729;43.570;27.826;2022-12-07T10:38:27;99087.41;;;13.77;100.00
11349;BME280;5729;43.570;27.826;2022-12-07T10:41:06;99078.81;;;14.26;100.00
11349;BME280;5729;43.570;27.826;2022-12-07T10:43:32;99074.69;;;14.57;100.00
11349;BME280;5729;43.570;27.826;2022-12-07T10:54:25;99068.59;;;15.84;100.00
11349;BME280;5729;43.570;27.826;2022-12-07T10:59:57;99055.75;;;16.03;100.00
11349;BME280;5729;43.570;27.826;2022-12-07T11:05:29;99042.63;;;15.48;100.00
11349;BME280;5729;43.570;27.826;2022-12-07T11:16:41;99042.63;;;15.41;100.00
11349;BME280;5729;43.570;27.826;2022-12-07T11:22:16;99051.94;;;15.40;100.00
11349;BME280;5729;43.570;27.826;2022-12-07T11:31:12;99047.06;;;14.27;100.00
11349;BME280;5729;43.570;27.826;2022-12-07T11:36:52;99049.84;;;13.68;100.00
11349;BME280;5729;43.570;27.826;2022-12-07T11:39:25;99048.66;;;13.62;100.00
11349;BME280;5729;43.570;27.826;2022-12-07T11:42:00;99033.94;;;13.60;100.00
11349;BME280;5729;43.570;27.826;2022-12-07T11:44:53;99039.28;;;13.49;100.00
11349;BME280;5729;43.570;27.826;2022-12-07T11:50:22;99035.66;;;13.31;100.00
11349;BME280;5729;43.570;27.826;2022-12-07T11:52:53;99029.34;;;13.16;100.00
11349;BME280;5729;43.570;27.826;2022-12-07T11:55:29;99027.69;;;13.04;100.00
11349;BME280;5729;43.570;27.826;2022-12-07T11:58:04;99026.53;;;13.05;100.00
11349;BME280;5729;43.570;27.826;2022-12-07T12:00:36;99008.28;;;12.99;100.00
11349;BME280;5729;43.570;27.826;2022-12-07T12:03:15;99021.53;;;13.11;100.00
11349;BME280;5729;43.570;27.826;2022-12-07T12:05:44;99023.38;;;13.00;100.00
11349;BME280;5729;43.570;27.826;2022-12-07T12:08:20;99018.25;;;12.88;100.00
11349;BME280;5729;43.570;27.826;2022-12-07T12:11:00;99023.09;;;12.68;100.00
11349;BME280;5729;43.570;27.826;2022-12-07T12:22:41;99010.50;;;12.46;100.00
11349;BME280;5729;43.570;27.826;2022-12-07T12:25:21;99008.53;;;12.43;100.00
11349;BME280;5729;43.570;27.826;2022-12-07T12:27:49;99004.53;;;12.29;100.00
11349;BME280;5729;43.570;27.826;2022-12-07T12:30:38;99012.22;;;12.27;100.00
11349;BME280;5729;43.570;27.826;2022-12-07T12:33:25;99009.94;;;12.29;100.00
11349;BME280;5729;43.570;27.826;2022-12-07T12:47:01;99007.78;;;12.12;100.00
11349;BME280;5729;43.570;27.826;2022-12-07T12:52:00;98991.88;;;12.04;100.00
11349;BME280;5729;43.570;27.826;2022-12-07T12:54:31;98993.81;;;12.03;100.00
11349;BME280;5729;43.570;27.826;2022-12-07T13:02:54;99004.19;;;12.34;100.00
11349;BME280;5729;43.570;27.826;2022-12-07T13:05:23;99004.94;;;12.31;100.00
11349;BME280;5729;43.570;27.826;2022-12-07T13:10:34;99003.41;;;12.34;100.00
11349;BME280;5729;43.570;27.826;2022-12-07T13:18:39;99006.22;;;12.45;100.00
11349;BME280;5729;43.570;27.826;2022-12-07T13:29:35;98982.31;;;12.47;100.00
11349;BME280;5729;43.570;27.826;2022-12-07T13:31:46;99000.81;;;12.45;100.00
11349;BME280;5729;43.570;27.826;2022-12-07T13:36:56;98997.81;;;12.16;100.00
11349;BME280;5729;43.570;27.826;2022-12-07T13:39:23;98992.72;;;12.11;100.00
11349;BME280;5729;43.570;27.826;2022-12-07T13:42:06;98996.00;;;11.94;100.00
11349;BME280;5729;43.570;27.826;2022-12-07T13:44:34;98996.00;;;11.94;100.00
11349;BME280;5729;43.570;27.826;2022-12-07T13:48:02;98998.28;;;11.92;100.00
11349;BME280;5729;43.570;27.826;2022-12-07T13:50:27;98989.28;;;11.81;100.00
11349;BME280;5729;43.570;27.826;2022-12-07T13:52:58;99002.06;;;11.87;100.00
11349;BME280;5729;43.570;27.826;2022-12-07T13:55:23;98997.03;;;11.86;100.00
11349;BME280;5729;43.570;27.826;2022-12-07T13:57:51;99001.66;;;11.85;100.00
11349;BME280;5729;43.570;27.826;2022-12-07T14:00:19;98999.28;;;11.80;100.00
11349;BME280;5729;43.570;27.826;2022-12-07T14:03:00;99010.16;;;11.84;100.00
11349;BME280;5729;43.570;27.826;2022-12-07T14:05:28;99003.91;;;11.80;100.00
11349;BME280;5729;43.570;27.826;2022-12-07T14:11:12;99006.34;;;11.62;100.00
11349;BME280;5729;43.570;27.826;2022-12-07T14:15:51;98996.50;;;11.47;100.00
11349;BME280;5729;43.570;27.826;2022-12-07T14:18:29;98995.66;;;11.43;100.00
11349;BME280;5729;43.570;27.826;2022-12-07T14:21:25;98992.81;;;11.32;100.00
11349;BME280;5729;43.570;27.826;2022-12-07T14:24:19;98986.59;;;11.28;100.00
11349;BME280;5729;43.570;27.826;2022-12-07T14:26:49;98994.19;;;11.22;100.00
11349;BME280;5729;43.570;27.826;2022-12-07T14:29:42;98991.34;;;11.12;100.00
11349;BME280;5729;43.570;27.826;2022-12-07T14:32:27;99002.81;;;11.05;100.00
11349;BME280;5729;43.570;27.826;2022-12-07T14:37:30;98997.34;;;11.02;100.00
11349;BME280;5729;43.570;27.826;2022-12-07T14:39:56;98991.84;;;10.95;100.00
11349;BME280;5729;43.570;27.826;2022-12-07T14:42:24;98999.94;;;10.95;100.00
11349;BME280;5729;43.570;27.826;2022-12-07T14:44:50;98992.97;;;10.94;100.00
11349;BME280;5729;43.570;27.826;2022-12-07T14:47:15;99003.75;;;10.94;100.00
11349;BME280;5729;43.570;27.826;2022-12-07T14:49:41;99006.47;;;10.94;100.00
11349;BME280;5729;43.570;27.826;2022-12-07T14:52:13;99000.28;;;10.93;100.00
11349;BME280;5729;43.570;27.826;2022-12-07T14:54:40;98989.38;;;10.86;100.00
11349;BME280;5729;43.570;27.826;2022-12-07T14:57:08;98993.97;;;10.85;100.00
11349;BME280;5729;43.570;27.826;2022-12-07T14:59:34;99005.59;;;10.89;100.00
11349;BME280;5729;43.570;27.826;2022-12-07T15:02:00;98991.59;;;10.80;100.00
11349;BME280;5729;43.570;27.826;2022-12-07T15:04:25;99004.06;;;10.88;100.00
11349;BME280;5729;43.570;27.826;2022-12-07T15:07:02;99003.19;;;10.84;100.00
11349;BME280;5729;43.570;27.826;2022-12-07T15:09:28;99012.47;;;10.83;100.00
11349;BME280;5729;43.570;27.826;2022-12-07T15:11:54;99005.84;;;10.81;100.00
11349;BME280;5729;43.570;27.826;2022-12-07T15:14:19;99012.38;;;10.80;100.00